Time;durP1;ratioP1;P1;durP2;ratioP2;P2;SDS_P1;SDS_P2;PMS_P1;PMS_P2;Temp;Humidity;BMP_temperature;BMP_pressure;BME280_temperature;BME280_humidity;BME280_pressure;Samples;Min_cycle;Max_cycle;Signal;HPM_P1;HPM_P2
2023/07/21 00:01:36;;;;;;;;;3.67;3.00;;;;;23.33;39.34;100826.59;5054242;28;45601;-66
2023/07/21 00:04:03;;;;;;;;;2.00;1.00;;;;;23.33;39.07;100823.88;5056823;28;46915;-65
2023/07/21 00:06:28;;;;;;;;;1.00;1.00;;;;;23.28;39.36;100820.38;5067179;28;45295;-65
2023/07/21 00:08:55;;;;;;;;;2.33;2.00;;;;;23.30;39.47;100821.22;5072946;28;45110;-66
2023/07/21 00:11:20;;;;;;;;;1.33;1.33;;;;;23.30;39.97;100823.97;5070875;28;45865;-66
2023/07/21 00:13:46;;;;;;;;;0.33;0.33;;;;;23.30;39.59;100823.97;5070105;28;45412;-65
2023/07/21 00:16:11;;;;;;;;;3.67;1.67;;;;;23.31;39.70;100817.59;5062697;28;45310;-67
2023/07/21 00:18:36;;;;;;;;;1.00;1.00;;;;;23.29;39.79;100816.69;5063000;28;45408;-67
2023/07/21 00:21:05;;;;;;;;;1.67;1.67;;;;;23.26;39.28;100815.88;5058108;28;45652;-67
2023/07/21 00:23:31;;;;;;;;;2.00;2.00;;;;;23.23;39.37;100814.16;5059807;28;46135;-68
2023/07/21 00:25:57;;;;;;;;;3.00;3.00;;;;;23.15;39.29;100802.53;5058474;28;45632;-67
2023/07/21 00:28:25;;;;;;;;;2.00;2.00;;;;;23.14;39.16;100806.19;5052270;28;45448;-68
2023/07/21 00:30:50;;;;;;;;;2.00;1.00;;;;;22.82;39.18;100747.91;5055012;28;45478;-66
2023/07/21 00:33:16;;;;;;;;;1.00;1.00;;;;;23.09;39.39;100799.97;5062641;28;45594;-69
2023/07/21 00:35:41;;;;;;;;;2.67;2.67;;;;;22.97;39.31;100791.13;5056195;28;45331;-69
2023/07/21 00:38:07;;;;;;;;;1.67;1.67;;;;;23.06;39.41;100806.34;5056176;28;46090;-66
2023/07/21 00:40:38;;;;;;;;;3.33;1.00;;;;;23.06;39.74;100811.78;5055106;28;45534;-68
2023/07/21 00:43:04;;;;;;;;;2.67;2.00;;;;;22.92;39.94;100790.34;5054833;28;45445;-66
2023/07/21 00:45:34;;;;;;;;;2.00;2.00;;;;;23.00;40.08;100814.69;5050690;28;45599;-65
2023/07/21 00:48:03;;;;;;;;;3.00;1.00;;;;;23.02;39.41;100829.16;5040985;28;45350;-68
2023/07/21 00:50:29;;;;;;;;;2.67;1.00;;;;;22.98;39.63;100812.00;5054347;28;45373;-69
2023/07/21 00:52:55;;;;;;;;;1.00;1.00;;;;;23.02;39.33;100822.81;5053351;28;46407;-70
2023/07/21 00:55:21;;;;;;;;;3.00;3.00;;;;;22.98;39.42;100817.44;5056449;28;45431;-69
2023/07/21 00:57:47;;;;;;;;;3.00;3.00;;;;;22.99;39.81;100812.88;5052756;28;45436;-66
2023/07/21 01:00:13;;;;;;;;;1.00;1.00;;;;;22.95;39.43;100794.78;5057673;28;45519;-67
2023/07/21 01:02:39;;;;;;;;;5.00;5.00;;;;;22.98;39.75;100801.09;5052586;28;47020;-65
2023/07/21 01:05:06;;;;;;;;;2.00;2.00;;;;;22.84;40.04;100784.19;5040378;28;45620;-64
2023/07/21 01:07:33;;;;;;;;;1.33;1.33;;;;;22.90;40.04;100803.09;5055123;28;45454;-64
2023/07/21 01:09:59;;;;;;;;;1.33;1.00;;;;;22.91;40.84;100809.44;5052079;28;45402;-65
2023/07/21 01:12:27;;;;;;;;;1.67;1.67;;;;;22.87;41.46;100802.25;5054407;28;46072;-66
2023/07/21 01:14:53;;;;;;;;;3.33;2.00;;;;;22.87;43.36;100803.19;5033083;28;45440;-65
2023/07/21 01:17:19;;;;;;;;;3.00;1.33;;;;;22.93;42.99;100807.56;5042822;28;45727;-65
2023/07/21 01:19:48;;;;;;;;;2.67;2.00;;;;;22.91;42.76;100807.59;5047753;28;45746;-66
2023/07/21 01:22:40;;;;;;;;;2.33;2.33;;;;;22.91;42.29;100804.00;5071406;28;45224;-64
2023/07/21 01:25:10;;;;;;;;;3.00;1.33;;;;;22.68;43.48;100789.06;5036759;28;45469;-63
2023/07/21 01:27:39;;;;;;;;;3.00;1.00;;;;;22.72;42.50;100796.25;5073033;28;44993;-63
2023/07/21 01:30:10;;;;;;;;;0.67;0.67;;;;;22.67;43.06;100795.47;5072932;28;45309;-64
2023/07/21 01:32:37;;;;;;;;;2.67;2.67;;;;;22.76;43.59;100811.59;5067943;28;45642;-65
2023/07/21 01:35:04;;;;;;;;;2.00;2.00;;;;;22.72;44.55;100808.97;5053366;28;45111;-65
2023/07/21 01:37:31;;;;;;;;;5.00;2.00;;;;;22.67;43.99;100805.44;5069657;28;45098;-65
2023/07/21 01:39:58;;;;;;;;;2.33;2.33;;;;;22.74;45.36;100818.03;5071664;28;45161;-65
2023/07/21 01:42:29;;;;;;;;;1.00;1.00;;;;;22.68;44.65;100813.59;5053456;28;47324;-65
2023/07/21 01:44:56;;;;;;;;;2.00;2.00;;;;;22.52;44.58;100795.81;5069185;28;45179;-65
2023/07/21 01:47:21;;;;;;;;;0.00;0.00;;;;;22.52;44.83;100804.88;5053047;28;45244;-65
2023/07/21 01:49:47;;;;;;;;;1.33;1.33;;;;;22.30;45.06;100782.66;5068645;28;45155;-65
2023/07/21 01:52:16;;;;;;;;;1.33;1.33;;;;;22.31;45.46;100789.03;5071530;28;45161;-65
2023/07/21 01:54:44;;;;;;;;;2.00;2.00;;;;;22.33;45.50;100798.03;5070005;28;45433;-64
2023/07/21 01:57:15;;;;;;;;;1.00;1.00;;;;;22.09;45.85;100759.47;5071028;28;45100;-65
2023/07/21 01:59:45;;;;;;;;;1.00;1.00;;;;;22.23;45.71;100786.44;5070938;28;45271;-64
2023/07/21 02:02:12;;;;;;;;;3.00;0.67;;;;;22.19;45.55;100784.69;5070062;28;45223;-65
2023/07/21 02:04:38;;;;;;;;;4.00;2.67;;;;;22.05;45.54;100769.53;5070765;28;45139;-64
2023/07/21 02:07:04;;;;;;;;;1.00;1.00;;;;;22.08;45.10;100777.66;5070372;28;45185;-65
2023/07/21 02:09:29;;;;;;;;;1.33;1.33;;;;;21.97;45.77;100757.91;5067528;28;45440;-64
2023/07/21 02:11:55;;;;;;;;;1.00;1.00;;;;;22.13;45.65;100793.00;5067291;28;49549;-63
2023/07/21 02:14:22;;;;;;;;;1.33;1.33;;;;;22.13;45.96;100788.44;5056122;28;45215;-65
2023/07/21 02:16:47;;;;;;;;;1.00;1.00;;;;;22.03;45.22;100776.84;5070866;28;45238;-65
2023/07/21 02:19:12;;;;;;;;;2.33;1.00;;;;;21.83;45.34;100749.16;5067877;28;45208;-65
2023/07/21 02:21:38;;;;;;;;;1.00;1.00;;;;;21.98;45.39;100767.00;5060923;28;45311;-65
2023/07/21 02:24:03;;;;;;;;;2.00;2.00;;;;;21.95;46.47;100778.81;5054893;28;45762;-64
2023/07/21 02:26:29;;;;;;;;;3.00;1.00;;;;;22.02;46.04;100785.94;5069980;28;46310;-63
2023/07/21 02:28:54;;;;;;;;;1.67;1.00;;;;;21.97;45.95;100787.84;5069141;28;45097;-64
2023/07/21 02:31:21;;;;;;;;;3.00;1.00;;;;;21.87;46.07;100765.38;5070647;28;52101;-63
2023/07/21 02:33:47;;;;;;;;;2.00;2.00;;;;;21.88;45.62;100780.78;5071479;28;45146;-64
2023/07/21 02:36:13;;;;;;;;;0.67;0.67;;;;;21.84;45.13;100789.91;5069803;28;45196;-63
2023/07/21 02:38:39;;;;;;;;;1.00;1.00;;;;;21.82;45.20;100791.78;5072149;28;45070;-64
2023/07/21 02:41:05;;;;;;;;;2.00;2.00;;;;;21.76;44.86;100791.00;5067736;28;46003;-64
2023/07/21 02:43:32;;;;;;;;;2.00;2.00;;;;;21.66;45.37;100771.22;5070440;28;44965;-63
2023/07/21 02:45:57;;;;;;;;;0.33;0.33;;;;;21.71;45.21;100788.34;5070141;28;45142;-63
2023/07/21 02:48:23;;;;;;;;;1.33;1.33;;;;;21.69;45.34;100793.81;5067192;28;45177;-66
2023/07/21 02:50:50;;;;;;;;;2.00;2.00;;;;;21.66;45.55;100788.47;5071327;28;45256;-66
2023/07/21 02:53:17;;;;;;;;;3.67;3.00;;;;;21.54;45.74;100767.81;5069430;28;45145;-63
2023/07/21 02:55:43;;;;;;;;;2.00;2.00;;;;;21.63;45.57;100783.09;5071516;28;45015;-63
2023/07/21 02:58:10;;;;;;;;;2.33;2.33;;;;;21.61;45.89;100790.34;5068824;28;45190;-63
2023/07/21 03:00:35;;;;;;;;;2.00;2.00;;;;;21.62;46.65;100792.16;5068177;28;44985;-65
2023/07/21 03:03:03;;;;;;;;;2.00;2.00;;;;;21.58;46.12;100786.78;5071135;28;45110;-63
2023/07/21 03:05:29;;;;;;;;;2.00;2.00;;;;;21.57;45.99;100796.78;5068914;28;45135;-64
2023/07/21 03:07:56;;;;;;;;;1.00;1.00;;;;;21.53;45.91;100786.88;5060706;28;45156;-65
2023/07/21 03:10:21;;;;;;;;;2.67;2.00;;;;;21.51;46.20;100786.00;5065388;28;45240;-64
2023/07/21 03:12:47;;;;;;;;;3.00;3.00;;;;;21.26;45.93;100751.09;5070459;28;45208;-66
2023/07/21 03:15:12;;;;;;;;;2.00;1.00;;;;;21.47;45.98;100789.69;5050518;28;45654;-63
2023/07/21 03:17:37;;;;;;;;;1.67;1.00;;;;;21.27;45.52;100763.75;5073723;28;45188;-63
2023/07/21 03:20:16;;;;;;;;;3.00;1.00;;;;;21.24;46.06;100765.63;5074832;28;45124;-63
2023/07/21 03:22:42;;;;;;;;;2.33;1.67;;;;;21.25;46.02;100781.00;5038345;28;45222;-63
2023/07/21 03:25:09;;;;;;;;;1.00;1.00;;;;;21.17;46.49;100787.47;5062317;28;44997;-64
2023/07/21 03:27:35;;;;;;;;;1.00;1.00;;;;;21.12;46.33;100791.22;5072670;28;45245;-63
2023/07/21 03:30:04;;;;;;;;;3.00;1.00;;;;;21.16;46.81;100790.22;5073274;28;45259;-63
2023/07/21 03:32:29;;;;;;;;;1.00;1.00;;;;;21.12;46.77;100783.94;5073754;28;44866;-63
2023/07/21 03:34:55;;;;;;;;;1.00;1.00;;;;;21.15;47.01;100775.75;5071814;28;45538;-63
2023/07/21 03:37:25;;;;;;;;;1.67;1.00;;;;;21.16;46.72;100773.91;5073903;28;44882;-63
2023/07/21 03:39:50;;;;;;;;;2.00;2.00;;;;;21.26;47.17;100785.53;5069047;28;46091;-64
2023/07/21 03:42:15;;;;;;;;;4.00;4.00;;;;;21.20;46.76;100766.59;5073830;28;45261;-64
2023/07/21 03:44:41;;;;;;;;;1.33;1.33;;;;;21.12;46.96;100764.03;5071156;28;55120;-63
2023/07/21 03:47:06;;;;;;;;;1.67;1.67;;;;;20.99;46.96;100747.94;5073955;28;45192;-65
2023/07/21 03:49:32;;;;;;;;;3.00;3.00;;;;;21.17;46.68;100771.16;5073242;28;55096;-64
2023/07/21 03:51:57;;;;;;;;;1.00;1.00;;;;;21.21;46.83;100793.75;5070645;28;45151;-65
2023/07/21 03:54:22;;;;;;;;;2.00;0.67;;;;;21.21;46.46;100799.19;5073456;28;45103;-63
2023/07/21 03:56:48;;;;;;;;;1.67;1.67;;;;;21.18;46.96;100801.94;5072595;28;45012;-65
2023/07/21 03:59:13;;;;;;;;;5.33;5.33;;;;;21.15;46.35;100804.72;5054653;28;46070;-64
2023/07/21 04:01:38;;;;;;;;;2.00;2.00;;;;;21.09;46.56;100805.72;5068115;28;45012;-64
2023/07/21 04:04:04;;;;;;;;;4.00;1.00;;;;;21.05;46.29;100804.00;5071383;28;45206;-63
2023/07/21 04:06:29;;;;;;;;;2.33;1.00;;;;;21.07;46.52;100802.13;5073769;28;45186;-65
2023/07/21 04:08:55;;;;;;;;;2.00;2.00;;;;;21.06;46.79;100802.16;5071979;28;45331;-64
2023/07/21 04:11:20;;;;;;;;;1.33;1.33;;;;;21.03;46.96;100804.94;5073827;28;45244;-64
2023/07/21 04:13:45;;;;;;;;;2.00;2.00;;;;;21.00;47.38;100795.00;5072225;28;44954;-63
2023/07/21 04:16:11;;;;;;;;;1.33;1.00;;;;;21.01;47.49;100795.91;5074429;28;45105;-64
2023/07/21 04:18:39;;;;;;;;;2.00;2.00;;;;;21.06;47.68;100802.16;5072628;28;45280;-63
2023/07/21 04:21:06;;;;;;;;;3.00;2.00;;;;;21.05;47.96;100805.78;5069172;28;45159;-65
2023/07/21 04:23:32;;;;;;;;;2.67;2.67;;;;;20.90;47.79;100799.66;5073673;28;45028;-65
2023/07/21 04:25:57;;;;;;;;;3.00;3.00;;;;;20.88;48.18;100795.19;5071707;28;45116;-64
2023/07/21 04:28:23;;;;;;;;;2.00;2.00;;;;;20.92;47.89;100799.66;5072702;28;63037;-65
2023/07/21 04:30:53;;;;;;;;;2.00;2.00;;;;;20.92;47.85;100800.56;5088879;22;45420;-63
2023/07/21 04:33:19;;;;;;;;;1.67;1.67;;;;;20.94;47.56;100804.16;5073468;28;45079;-63
2023/07/21 04:35:46;;;;;;;;;6.00;4.00;;;;;20.92;47.50;100799.66;5072318;28;47485;-64
2023/07/21 04:38:11;;;;;;;;;3.00;3.00;;;;;20.88;48.42;100811.50;5077658;28;45794;-65
2023/07/21 04:40:36;;;;;;;;;3.33;3.33;;;;;20.68;48.54;100809.97;5073077;28;45069;-64
2023/07/21 04:43:02;;;;;;;;;3.00;3.00;;;;;20.58;49.59;100808.28;5054530;28;57321;-66
2023/07/21 04:45:27;;;;;;;;;1.67;1.67;;;;;20.52;49.69;100811.06;5073138;28;45118;-64
2023/07/21 04:47:53;;;;;;;;;1.00;1.00;;;;;20.55;50.12;100806.47;5072802;28;45521;-64
2023/07/21 04:50:18;;;;;;;;;2.33;2.33;;;;;20.47;49.49;100791.25;5073090;28;45112;-65
2023/07/21 04:52:44;;;;;;;;;2.00;1.00;;;;;20.52;49.70;100787.53;5071983;28;45218;-63
2023/07/21 04:55:09;;;;;;;;;3.67;3.67;;;;;20.56;49.39;100792.00;5069179;28;45142;-63
2023/07/21 04:57:35;;;;;;;;;1.67;1.67;;;;;20.22;49.09;100731.88;5072336;28;45132;-62
2023/07/21 05:00:01;;;;;;;;;7.33;4.33;;;;;20.61;49.38;100789.22;5072559;28;45196;-63
2023/07/21 05:02:28;;;;;;;;;3.67;2.33;;;;;20.67;49.40;100788.25;5072108;28;45138;-61
2023/07/21 05:04:54;;;;;;;;;2.67;2.67;;;;;20.65;49.62;100768.41;5054033;28;45124;-63
2023/07/21 05:07:19;;;;;;;;;40.00;32.25;;;;;20.78;49.80;100781.75;5052881;28;47472;-62
2023/07/21 05:09:44;;;;;;;;;13.33;11.33;;;;;20.83;49.91;100787.13;5070965;28;45111;-63
2023/07/21 05:12:10;;;;;;;;;6.33;5.00;;;;;20.88;50.16;100778.91;5071407;28;45332;-66
2023/07/21 05:14:36;;;;;;;;;2.00;2.00;;;;;20.92;50.04;100778.84;5071326;28;45096;-61
2023/07/21 05:17:02;;;;;;;;;2.00;2.00;;;;;20.92;48.15;100777.91;5073717;28;45255;-65
2023/07/21 05:19:27;;;;;;;;;2.00;2.00;;;;;20.86;48.06;100783.47;5075150;28;45414;-63
2023/07/21 05:21:52;;;;;;;;;4.00;3.00;;;;;20.76;48.69;100799.88;5072079;28;45235;-65
2023/07/21 05:24:18;;;;;;;;;2.33;2.33;;;;;20.62;48.41;100783.78;5072967;28;45208;-62
2023/07/21 05:26:43;;;;;;;;;3.33;1.00;;;;;20.60;48.78;100788.31;5070266;28;45429;-63
2023/07/21 05:29:08;;;;;;;;;6.00;3.00;;;;;20.63;48.68;100792.84;5066940;28;46131;-68
2023/07/21 05:31:35;;;;;;;;;3.00;1.67;;;;;20.62;48.22;100793.72;5071380;28;45170;-64
2023/07/21 05:34:01;;;;;;;;;2.00;2.00;;;;;20.67;48.62;100799.13;5068292;28;45266;-63
2023/07/21 05:36:26;;;;;;;;;3.00;3.00;;;;;20.66;48.59;100789.22;5071379;28;46851;-64
2023/07/21 05:38:52;;;;;;;;;3.67;3.00;;;;;20.66;48.84;100794.63;5054562;28;45127;-69
2023/07/21 05:41:18;;;;;;;;;3.00;3.00;;;;;20.65;49.27;100788.28;5055366;28;44991;-70
2023/07/21 05:43:44;;;;;;;;;1.33;1.33;;;;;20.65;49.28;100788.28;5053138;28;45227;-67
2023/07/21 05:46:10;;;;;;;;;2.67;2.33;;;;;20.64;49.83;100777.44;5070883;28;45188;-62
2023/07/21 05:48:36;;;;;;;;;5.67;4.00;;;;;20.68;49.63;100769.25;5072052;28;45310;-64
2023/07/21 05:51:01;;;;;;;;;1.00;1.00;;;;;20.70;48.88;100780.09;5073138;28;45130;-64
2023/07/21 05:53:27;;;;;;;;;3.00;3.00;;;;;20.77;48.38;100787.19;5049383;28;45437;-63
2023/07/21 05:55:52;;;;;;;;;3.67;3.67;;;;;20.80;48.25;100790.78;5075767;28;45088;-64
2023/07/21 05:58:22;;;;;;;;;6.00;4.00;;;;;20.78;48.28;100781.75;5071981;28;45091;-62
2023/07/21 06:00:48;;;;;;;;;2.00;2.00;;;;;20.82;48.69;100793.44;5051346;28;45293;-65
2023/07/21 06:03:13;;;;;;;;;4.00;4.00;;;;;20.58;49.15;100743.13;5071817;28;45110;-64
2023/07/21 06:05:39;;;;;;;;;2.00;2.00;;;;;20.87;49.03;100790.69;5067969;28;45160;-64
2023/07/21 06:08:04;;;;;;;;;3.00;3.00;;;;;20.86;49.45;100794.34;5053952;28;45120;-65
2023/07/21 06:10:31;;;;;;;;;2.00;2.00;;;;;20.87;49.40;100799.75;5070046;28;45092;-62
2023/07/21 06:12:56;;;;;;;;;2.00;2.00;;;;;20.95;48.48;100808.66;5070994;28;45037;-62
2023/07/21 06:15:24;;;;;;;;;3.00;3.00;;;;;20.98;48.49;100799.56;5068692;28;45470;-63
2023/07/21 06:17:49;;;;;;;;;2.67;2.67;;;;;20.97;47.15;100800.50;5071360;28;45020;-62
2023/07/21 06:20:15;;;;;;;;;2.67;2.67;;;;;21.01;46.61;100799.50;5065605;28;45165;-63
2023/07/21 06:22:40;;;;;;;;;1.67;1.33;;;;;20.95;45.51;100796.88;5068337;28;45205;-64
2023/07/21 06:25:06;;;;;;;;;2.00;2.00;;;;;20.92;45.51;100791.50;5069303;28;45720;-63
2023/07/21 06:27:31;;;;;;;;;3.00;2.00;;;;;20.92;45.60;100788.78;5063635;28;46227;-66
2023/07/21 06:29:57;;;;;;;;;2.00;2.00;;;;;20.94;45.21;100797.81;5050421;28;45352;-66
2023/07/21 06:32:23;;;;;;;;;3.67;2.00;;;;;20.97;45.51;100804.09;5067788;28;46648;-64
2023/07/21 06:34:49;;;;;;;;;3.00;3.00;;;;;20.97;45.03;100806.81;5067110;28;45617;-66
2023/07/21 06:37:14;;;;;;;;;4.67;2.00;;;;;20.87;45.68;100813.31;5070106;28;47411;-62
2023/07/21 06:39:39;;;;;;;;;3.67;3.67;;;;;20.76;45.93;100818.91;5063877;28;56414;-63
2023/07/21 06:42:07;;;;;;;;;3.33;3.33;;;;;20.65;46.27;100806.41;5066578;28;45348;-63
2023/07/21 06:44:34;;;;;;;;;7.00;5.00;;;;;20.68;46.54;100809.06;5070901;28;46761;-64
2023/07/21 06:47:00;;;;;;;;;5.00;3.33;;;;;20.80;46.55;100811.59;5069466;28;45053;-63
2023/07/21 06:49:25;;;;;;;;;5.00;4.33;;;;;20.86;47.02;100813.34;5069000;28;45096;-64
2023/07/21 06:51:51;;;;;;;;;4.00;4.00;;;;;20.89;46.84;100792.47;5068060;28;45273;-64
2023/07/21 06:54:17;;;;;;;;;5.67;4.00;;;;;21.02;46.79;100808.56;5059324;28;45832;-64
2023/07/21 06:56:42;;;;;;;;;5.67;3.33;;;;;21.05;46.99;100808.50;5053468;28;51936;-68
2023/07/21 06:59:07;;;;;;;;;3.33;3.33;;;;;21.09;46.95;100807.56;5036482;28;45600;-63
2023/07/21 07:01:33;;;;;;;;;5.67;4.00;;;;;21.09;47.16;100792.13;5052846;28;45774;-63
2023/07/21 07:03:59;;;;;;;;;5.67;4.00;;;;;21.16;47.23;100799.25;5054764;28;45565;-64
2023/07/21 07:06:27;;;;;;;;;6.00;4.00;;;;;21.23;47.35;100807.31;5034469;28;45640;-64
2023/07/21 07:08:52;;;;;;;;;9.67;6.67;;;;;21.23;47.44;100802.75;5048764;28;45501;-66
2023/07/21 07:11:18;;;;;;;;;2.00;1.00;;;;;21.26;47.09;100801.81;5053137;28;45591;-64
2023/07/21 07:13:43;;;;;;;;;8.67;6.00;;;;;21.25;47.22;100791.88;5052771;28;45501;-63
2023/07/21 07:16:10;;;;;;;;;4.67;4.00;;;;;21.29;47.04;100801.78;5052527;28;45574;-65
2023/07/21 07:18:36;;;;;;;;;4.00;3.67;;;;;21.27;47.06;100812.69;5033642;28;45427;-64
2023/07/21 07:21:01;;;;;;;;;5.00;4.00;;;;;21.29;47.24;100804.50;5060471;28;46004;-65
2023/07/21 07:23:27;;;;;;;;;4.67;4.67;;;;;21.12;47.12;100769.47;5062520;28;46131;-64
2023/07/21 07:25:53;;;;;;;;;8.00;6.67;;;;;21.11;47.00;100765.84;5038009;28;45532;-66
2023/07/21 07:28:20;;;;;;;;;3.33;3.00;;;;;21.38;47.05;100817.91;5048851;28;45597;-63
2023/07/21 07:30:47;;;;;;;;;5.00;4.67;;;;;21.41;47.32;100811.53;5053139;28;45416;-62
2023/07/21 07:33:14;;;;;;;;;7.33;7.33;;;;;21.42;47.25;100821.50;5059712;28;46270;-66
2023/07/21 07:35:50;;;;;;;;;5.00;5.00;;;;;21.43;47.47;100821.47;5069016;28;45193;-64
2023/07/21 07:38:23;;;;;;;;;7.00;7.00;;;;;21.48;47.69;100815.97;5070340;28;45205;-63
2023/07/21 07:40:49;;;;;;;;;4.00;4.00;;;;;21.50;47.72;100819.56;5045115;28;45171;-64
2023/07/21 07:43:15;;;;;;;;;9.00;7.67;;;;;21.52;47.77;100821.31;5052605;28;45660;-63
2023/07/21 07:45:40;;;;;;;;;5.00;5.00;;;;;21.64;48.05;100827.47;5045751;28;45643;-64
2023/07/21 07:48:07;;;;;;;;;9.67;7.33;;;;;21.57;48.47;100820.38;5029630;28;45670;-63
2023/07/21 07:50:39;;;;;;;;;9.33;7.33;;;;;21.46;48.72;100829.53;5037361;28;45406;-68
2023/07/21 07:53:06;;;;;;;;;8.33;6.33;;;;;21.35;49.12;100820.72;5050516;28;46245;-64
2023/07/21 07:55:37;;;;;;;;;7.00;7.00;;;;;21.25;49.85;100835.34;5049772;28;45490;-64
2023/07/21 07:58:03;;;;;;;;;8.33;6.33;;;;;21.16;49.46;100821.00;5055208;28;46039;-70
2023/07/21 08:00:29;;;;;;;;;21.00;17.50;;;;;21.29;49.53;100832.56;5050521;28;45574;-65
2023/07/21 08:02:55;;;;;;;;;15.67;7.33;;;;;21.39;49.49;100836.03;5049748;28;46173;-65
2023/07/21 08:05:21;;;;;;;;;10.00;5.67;;;;;21.40;49.62;100826.03;5063214;28;45289;-66
2023/07/21 08:07:48;;;;;;;;;8.00;6.67;;;;;21.51;49.60;100837.66;5053971;28;45260;-64
2023/07/21 08:10:14;;;;;;;;;9.00;7.67;;;;;21.51;50.02;100843.09;5055531;28;45460;-65
2023/07/21 08:12:39;;;;;;;;;13.33;7.00;;;;;21.42;50.06;100837.81;5029956;28;47459;-67
2023/07/21 08:15:05;;;;;;;;;9.00;7.33;;;;;21.34;49.99;100830.66;5048063;28;45753;-63
2023/07/21 08:17:30;;;;;;;;;9.00;7.67;;;;;21.39;50.23;100848.72;5049872;28;45506;-68
2023/07/21 08:19:56;;;;;;;;;7.67;7.67;;;;;21.46;50.18;100845.84;5052401;28;45460;-64
2023/07/21 08:22:21;;;;;;;;;6.33;5.00;;;;;21.58;50.10;100852.97;5055770;28;45668;-68
2023/07/21 08:24:46;;;;;;;;;12.00;7.00;;;;;21.70;49.04;100840.97;5055625;28;45446;-62
2023/07/21 08:27:11;;;;;;;;;9.67;7.00;;;;;21.75;48.88;100849.06;5033214;28;47962;-64
2023/07/21 08:29:37;;;;;;;;;7.33;5.33;;;;;21.58;48.91;100814.91;5051609;28;45792;-63
2023/07/21 08:32:02;;;;;;;;;8.00;6.33;;;;;21.73;49.24;100843.63;5051486;28;46361;-64
2023/07/21 08:34:28;;;;;;;;;7.33;5.33;;;;;21.72;48.73;100847.28;5053613;28;45261;-63
2023/07/21 08:36:53;;;;;;;;;13.33;6.00;;;;;21.83;48.68;100860.69;5051317;28;45556;-65
2023/07/21 08:39:18;;;;;;;;;10.67;9.00;;;;;21.93;48.73;100839.63;5048681;28;45304;-63
2023/07/21 08:41:50;;;;;;;;;5.33;5.33;;;;;22.11;48.62;100850.16;5050595;28;46093;-64
2023/07/21 08:44:16;;;;;;;;;9.00;9.00;;;;;22.32;48.20;100840.69;5032940;28;45508;-64
2023/07/21 08:46:42;;;;;;;;;12.00;7.67;;;;;22.43;46.89;100846.81;5029094;28;45505;-64
2023/07/21 08:49:08;;;;;;;;;11.33;6.67;;;;;22.42;46.50;100825.06;5039207;28;46271;-65
2023/07/21 08:51:35;;;;;;;;;8.33;6.67;;;;;22.61;46.61;100840.06;5050775;28;45892;-66
2023/07/21 08:54:01;;;;;;;;;7.00;7.00;;;;;22.68;46.42;100846.28;5053773;28;45521;-65
2023/07/21 08:56:27;;;;;;;;;14.00;10.67;;;;;22.77;45.48;100842.47;5051650;28;45636;-64
2023/07/21 08:58:52;;;;;;;;;7.00;5.67;;;;;22.85;46.04;100836.81;5034549;28;45623;-65
2023/07/21 09:01:18;;;;;;;;;8.33;6.67;;;;;22.84;45.88;100815.97;5051109;28;45921;-65
2023/07/21 09:03:45;;;;;;;;;9.67;9.67;;;;;23.13;45.61;100839.81;5053220;28;45723;-63
2023/07/21 09:06:13;;;;;;;;;8.00;6.33;;;;;23.14;44.22;100841.63;5051309;28;45392;-65
2023/07/21 09:08:39;;;;;;;;;7.00;6.00;;;;;22.99;44.56;100842.84;5053611;28;45569;-62
2023/07/21 09:11:05;;;;;;;;;8.67;7.33;;;;;22.95;44.98;100838.38;5040319;28;46985;-66
2023/07/21 09:13:31;;;;;;;;;8.00;7.00;;;;;23.00;45.03;100831.91;5035858;28;46169;-70
2023/07/21 09:16:02;;;;;;;;;8.00;8.00;;;;;23.15;44.93;100841.59;5027828;28;45495;-71
2023/07/21 09:18:30;;;;;;;;;6.67;6.33;;;;;23.22;44.40;100830.53;5054387;28;45663;-70
2023/07/21 09:20:57;;;;;;;;;8.33;7.00;;;;;23.40;43.67;100840.97;5033696;28;47200;-73
2023/07/21 09:23:23;;;;;;;;;4.00;4.00;;;;;23.40;43.16;100840.97;5052129;28;45457;-71
2023/07/21 09:26:02;;;;;;;;;14.00;7.00;;;;;23.34;43.05;100827.50;5036336;28;45432;-66
2023/07/21 09:28:44;;;;;;;;;5.33;5.33;;;;;23.49;43.33;100848.03;5054908;28;45533;-78
2023/07/21 09:31:17;;;;;;;;;6.33;6.00;;;;;23.53;43.00;100836.13;5051832;28;45470;-79
2023/07/21 09:33:46;;;;;;;;;8.00;7.00;;;;;23.55;43.30;100839.69;5030886;28;45498;-77
2023/07/21 09:36:15;;;;;;;;;10.67;7.00;;;;;23.74;43.18;100840.09;5047839;28;45662;-77
2023/07/21 09:38:50;;;;;;;;;9.33;9.33;;;;;23.72;42.76;100809.22;5036456;28;45659;-77
2023/07/21 09:41:23;;;;;;;;;9.67;5.33;;;;;23.92;42.49;100838.72;5050628;28;45311;-77
2023/07/21 09:43:54;;;;;;;;;7.67;7.67;;;;;24.00;41.56;100843.97;5054842;28;45928;-79
2023/07/21 09:46:20;;;;;;;;;6.67;6.67;;;;;24.11;41.78;100841.84;5036558;28;45499;-69
2023/07/21 09:48:47;;;;;;;;;8.00;7.33;;;;;24.20;41.88;100841.56;5054621;28;45342;-76
2023/07/21 09:51:12;;;;;;;;;9.33;8.33;;;;;24.29;41.08;100837.69;5058293;28;45713;-76
2023/07/21 09:53:45;;;;;;;;;9.67;7.33;;;;;24.13;39.50;100833.63;5054892;28;45820;-74
2023/07/21 09:56:13;;;;;;;;;6.33;6.00;;;;;23.97;40.47;100833.16;5056142;28;45603;-70
2023/07/21 09:58:45;;;;;;;;;9.33;8.00;;;;;23.91;41.16;100848.75;5056501;28;46176;-74
2023/07/21 10:01:12;;;;;;;;;7.33;7.00;;;;;23.99;41.04;100845.81;5056106;28;45513;-74
2023/07/21 10:03:38;;;;;;;;;6.00;4.67;;;;;24.04;40.48;100837.47;5049745;28;45587;-75
2023/07/21 10:06:06;;;;;;;;;9.67;9.67;;;;;24.16;40.85;100841.72;5054279;28;45619;-75
2023/07/21 10:08:35;;;;;;;;;7.67;6.67;;;;;24.19;39.88;100847.09;5050378;28;45471;-76
2023/07/21 10:11:00;;;;;;;;;7.67;6.33;;;;;24.20;39.67;100859.78;5030262;28;46503;-75
2023/07/21 10:13:27;;;;;;;;;7.67;5.33;;;;;24.23;39.49;100854.25;5052756;28;45453;-76
2023/07/21 10:16:00;;;;;;;;;6.67;5.00;;;;;24.30;39.01;100847.66;5053052;28;45527;-77
2023/07/21 10:18:28;;;;;;;;;8.67;5.33;;;;;24.22;38.93;100814.22;5060876;28;45566;-77
2023/07/21 10:20:56;;;;;;;;;5.67;4.00;;;;;24.50;38.15;100855.28;5044445;28;46779;-78
2023/07/21 10:23:34;;;;;;;;;9.00;7.67;;;;;24.55;37.62;100844.19;5068508;28;45604;-79
2023/07/21 10:26:03;;;;;;;;;6.00;6.00;;;;;24.47;38.19;100853.53;5064707;28;45550;-76
2023/07/21 10:28:43;;;;;;;;;3.33;3.33;;;;;24.42;37.72;100833.66;5056835;28;45602;-78
2023/07/21 10:34:17;;;;;;;;;4.00;4.00;;;;;24.62;37.40;100821.28;5044933;28;45263;-75
2023/07/21 10:36:51;;;;;;;;;12.67;11.67;;;;;24.87;36.45;100850.56;5049816;28;45473;-76
2023/07/21 10:39:19;;;;;;;;;9.00;7.33;;;;;24.96;36.73;100847.53;5052665;28;45560;-72
2023/07/21 10:41:47;;;;;;;;;13.67;12.67;;;;;25.04;35.91;100842.72;5055552;28;47355;-74
2023/07/21 10:44:12;;;;;;;;;2.67;2.67;;;;;25.09;36.20;100846.19;5052990;28;45333;-74
2023/07/21 10:46:40;;;;;;;;;4.00;4.00;;;;;25.01;35.75;100835.53;5052347;28;45311;-75
2023/07/21 10:49:09;;;;;;;;;8.00;8.00;;;;;24.89;36.16;100829.53;5038054;28;45440;-73
2023/07/21 10:51:34;;;;;;;;;9.00;9.00;;;;;24.88;36.39;100838.69;5053081;28;46610;-73
2023/07/21 10:54:00;;;;;;;;;15.33;14.67;;;;;24.87;34.96;100828.72;5051739;28;45382;-75
2023/07/21 10:56:25;;;;;;;;;4.67;4.67;;;;;24.87;34.65;100832.31;5053141;28;45469;-74
2023/07/21 10:58:52;;;;;;;;;7.00;7.00;;;;;24.92;35.00;100827.59;5053396;28;45496;-73
2023/07/21 11:01:21;;;;;;;;;6.67;5.00;;;;;25.06;35.14;100832.63;5051073;28;47176;-75
2023/07/21 11:03:48;;;;;;;;;9.33;9.00;;;;;24.96;34.87;100826.56;5052593;28;45388;-73
2023/07/21 11:06:14;;;;;;;;;6.33;4.33;;;;;24.98;34.79;100834.72;5049769;28;45638;-71
2023/07/21 11:08:40;;;;;;;;;9.67;7.67;;;;;24.93;34.53;100836.69;5056505;28;45332;-75
2023/07/21 11:11:07;;;;;;;;;15.33;13.00;;;;;24.81;34.72;100838.91;5065415;28;45480;-74
2023/07/21 11:13:33;;;;;;;;;5.67;4.67;;;;;24.75;35.18;100825.41;5055153;28;45387;-74
2023/07/21 11:16:00;;;;;;;;;7.00;5.00;;;;;24.87;35.34;100835.06;5038826;28;45388;-75
2023/07/21 11:18:28;;;;;;;;;5.33;4.00;;;;;24.87;35.31;100832.31;5047777;28;45373;-74
2023/07/21 11:20:55;;;;;;;;;4.00;4.00;;;;;24.84;34.37;100832.41;5048825;28;45890;-72
2023/07/21 11:23:21;;;;;;;;;5.33;4.00;;;;;24.87;34.65;100817.78;5045694;28;45990;-73
2023/07/21 11:26:09;;;;;;;;;4.67;4.00;;;;;24.96;34.15;100823.84;5049021;28;45644;-70